createdAt,value
2022-12-09T00:01:20.576Z,17.33
2022-12-09T00:03:47.591Z,15.77
2022-12-09T00:06:20.482Z,16.50
2022-12-09T00:08:47.813Z,15.63
2022-12-09T00:11:14.727Z,15.90
2022-12-09T00:13:41.638Z,16.07
2022-12-09T00:16:11.017Z,15.93
2022-12-09T00:18:41.771Z,17.97
2022-12-09T00:21:22.702Z,16.80
2022-12-09T00:23:50.707Z,17.23
2022-12-09T00:26:18.855Z,17.10
2022-12-09T00:28:46.124Z,18.93
2022-12-09T00:31:15.885Z,17.00
2022-12-09T00:33:42.596Z,17.33
2022-12-09T00:36:16.703Z,16.77
2022-12-09T00:38:44.090Z,18.60
2022-12-09T00:41:11.634Z,17.37
2022-12-09T00:43:44.732Z,17.00
2022-12-09T00:46:12.716Z,17.07
2022-12-09T00:48:40.222Z,15.07
2022-12-09T00:51:12.199Z,18.33
2022-12-09T00:53:42.204Z,18.13
2022-12-09T00:56:12.254Z,19.03
2022-12-09T00:58:42.404Z,18.27
2022-12-09T01:01:11.817Z,17.57
2022-12-09T01:03:43.025Z,17.70
2022-12-09T01:06:19.830Z,16.20
2022-12-09T01:08:47.056Z,17.63
2022-12-09T01:11:26.487Z,17.57
2022-12-09T01:13:54.681Z,17.50
2022-12-09T01:16:26.998Z,15.10
2022-12-09T01:18:55.673Z,17.43
2022-12-09T01:21:22.261Z,18.33
2022-12-09T01:23:48.836Z,17.97
2022-12-09T01:26:15.458Z,18.30
2022-12-09T01:28:45.505Z,17.00
2022-12-09T01:31:17.890Z,16.60
2022-12-09T01:33:44.708Z,16.83
2022-12-09T01:36:20.981Z,17.13
2022-12-09T01:38:48.166Z,17.73
2022-12-09T01:41:17.213Z,18.70
2022-12-09T01:43:44.837Z,18.27
2022-12-09T01:46:14.685Z,18.03
2022-12-09T01:48:46.654Z,17.97
2022-12-09T01:51:19.863Z,16.13
2022-12-09T01:53:49.631Z,18.37
2022-12-09T01:56:29.274Z,17.83
2022-12-09T01:58:59.190Z,18.50
2022-12-09T02:01:26.032Z,17.93
2022-12-09T02:03:52.748Z,16.33
2022-12-09T02:06:19.668Z,18.80
2022-12-09T02:08:47.991Z,16.97
2022-12-09T02:11:40.709Z,17.20
2022-12-09T02:14:21.744Z,18.17
2022-12-09T02:17:17.180Z,18.70
2022-12-09T02:19:53.877Z,16.47
2022-12-09T02:22:27.298Z,17.93
2022-12-09T02:25:03.506Z,18.40
2022-12-09T02:27:45.117Z,17.87
2022-12-09T02:30:24.573Z,17.07
2022-12-09T02:33:02.817Z,18.23
2022-12-09T02:35:54.280Z,19.60
2022-12-09T02:38:25.307Z,17.33
2022-12-09T02:41:01.404Z,18.53
2022-12-09T02:43:32.871Z,19.20
2022-12-09T02:46:01.022Z,17.90
2022-12-09T02:48:37.214Z,16.00
2022-12-09T02:51:07.566Z,17.30
2022-12-09T02:53:36.424Z,17.67
2022-12-09T02:56:05.719Z,17.57
2022-12-09T02:58:32.476Z,17.00
2022-12-09T03:00:59.805Z,19.00
2022-12-09T03:03:29.333Z,17.90
2022-12-09T03:06:24.193Z,17.53
2022-12-09T03:09:03.499Z,18.13
2022-12-09T03:11:32.810Z,17.47
2022-12-09T03:14:18.978Z,19.27
2022-12-09T03:17:01.492Z,16.83
2022-12-09T03:19:42.435Z,17.03
2022-12-09T03:22:13.620Z,17.50
2022-12-09T03:24:52.446Z,18.57
2022-12-09T03:27:41.784Z,17.00
2022-12-09T03:30:10.079Z,16.87
2022-12-09T03:32:39.336Z,19.27
2022-12-09T03:35:13.221Z,18.63
2022-12-09T03:37:42.115Z,18.43
2022-12-09T03:40:14.737Z,17.87
2022-12-09T03:43:04.085Z,19.07
2022-12-09T03:45:31.598Z,17.27
2022-12-09T03:47:58.642Z,19.50
2022-12-09T03:50:29.521Z,17.10
2022-12-09T03:53:06.347Z,18.77
2022-12-09T03:55:43.961Z,18.77
2022-12-09T03:58:13.200Z,17.90
2022-12-09T04:00:40.018Z,19.33
2022-12-09T04:03:08.040Z,16.93
2022-12-09T04:05:35.034Z,19.20
2022-12-09T04:08:01.709Z,17.87
2022-12-09T04:10:29.052Z,16.73
2022-12-09T04:12:58.527Z,16.97
2022-12-09T04:15:25.218Z,18.97
2022-12-09T04:17:52.166Z,16.93
2022-12-09T04:20:22.607Z,17.57
2022-12-09T04:22:51.218Z,16.77
2022-12-09T04:25:18.122Z,17.60
2022-12-09T04:27:45.583Z,18.10
2022-12-09T04:30:12.768Z,17.57
2022-12-09T04:32:40.088Z,16.50
2022-12-09T04:35:07.329Z,17.00
2022-12-09T04:37:34.357Z,16.47
2022-12-09T04:40:01.343Z,17.00
2022-12-09T04:42:29.079Z,17.83
2022-12-09T04:44:55.909Z,17.43
2022-12-09T04:47:23.038Z,15.83
2022-12-09T04:49:53.169Z,16.50
2022-12-09T04:52:22.141Z,17.90
2022-12-09T04:54:53.318Z,17.50
2022-12-09T04:57:20.197Z,15.50
2022-12-09T04:59:47.072Z,15.63
2022-12-09T05:02:14.233Z,20.23
2022-12-09T05:04:42.983Z,19.50
2022-12-09T05:07:11.909Z,18.70
2022-12-09T05:09:39.093Z,17.30
2022-12-09T05:12:06.415Z,16.37
2022-12-09T05:14:32.967Z,16.10
2022-12-09T05:16:59.618Z,15.20
2022-12-09T05:19:26.640Z,16.27
2022-12-09T05:21:56.893Z,15.90
2022-12-09T05:24:26.651Z,15.80
2022-12-09T05:26:57.050Z,15.77
2022-12-09T05:29:27.085Z,15.87
2022-12-09T05:31:56.842Z,16.77
2022-12-09T05:34:27.387Z,17.30
2022-12-09T05:36:57.272Z,16.40
2022-12-09T05:39:27.321Z,17.37
2022-12-09T05:41:57.704Z,16.97
2022-12-09T05:44:27.381Z,14.37
2022-12-09T05:46:56.467Z,16.57
2022-12-09T05:49:26.269Z,17.77
2022-12-09T05:51:56.497Z,15.53
2022-12-09T05:54:23.212Z,15.40
2022-12-09T05:56:49.970Z,15.53
2022-12-09T05:59:17.091Z,14.27
2022-12-09T06:01:43.991Z,16.17
2022-12-09T06:04:11.090Z,15.33
2022-12-09T06:06:38.110Z,14.77
2022-12-09T06:09:08.672Z,14.83
2022-12-09T06:11:35.524Z,14.50
2022-12-09T06:14:02.295Z,14.10
2022-12-09T06:16:29.082Z,13.20
2022-12-09T06:18:59.998Z,13.63
2022-12-09T06:21:29.868Z,14.97
2022-12-09T06:23:58.570Z,13.30
2022-12-09T06:26:28.423Z,13.00
2022-12-09T06:28:58.508Z,15.10
2022-12-09T06:31:28.465Z,15.23
2022-12-09T06:33:59.875Z,14.90
2022-12-09T06:36:29.990Z,16.40
2022-12-09T06:39:09.682Z,13.87
2022-12-09T06:41:37.268Z,15.00
2022-12-09T06:44:04.200Z,15.30
2022-12-09T06:46:31.291Z,15.77
2022-12-09T06:49:01.037Z,14.67
2022-12-09T06:51:31.369Z,13.63
2022-12-09T06:54:00.961Z,15.50
2022-12-09T06:56:30.597Z,15.30
2022-12-09T06:58:59.334Z,15.67
2022-12-09T07:01:26.209Z,14.80
2022-12-09T07:03:55.687Z,15.03
2022-12-09T07:06:38.329Z,16.23
2022-12-09T07:09:08.100Z,17.83
2022-12-09T07:11:35.266Z,16.83
2022-12-09T07:14:02.894Z,14.03
2022-12-09T07:16:32.844Z,14.93
2022-12-09T07:19:02.809Z,14.13
2022-12-09T07:21:33.808Z,14.33
2022-12-09T07:24:03.877Z,16.27
2022-12-09T07:26:34.098Z,16.73
2022-12-09T07:29:05.249Z,16.37
2022-12-09T07:31:33.986Z,16.23
2022-12-09T07:34:04.852Z,18.17
2022-12-09T07:36:36.608Z,16.63
2022-12-09T07:39:08.442Z,20.07
2022-12-09T07:41:35.313Z,16.63
2022-12-09T07:44:02.629Z,16.47
2022-12-09T07:46:34.059Z,16.80
2022-12-09T07:49:04.592Z,17.70
2022-12-09T07:51:34.170Z,17.50
2022-12-09T07:54:01.719Z,14.53
2022-12-09T07:56:29.378Z,16.43
2022-12-09T07:58:57.447Z,17.40
2022-12-09T08:01:43.838Z,16.47
2022-12-09T08:04:11.183Z,16.77
2022-12-09T08:06:38.262Z,18.80
2022-12-09T08:09:09.320Z,19.90
2022-12-09T08:11:36.771Z,18.70
2022-12-09T08:14:12.181Z,16.53
2022-12-09T08:16:40.433Z,16.63
2022-12-09T08:19:08.170Z,19.73
2022-12-09T08:21:35.853Z,19.57
2022-12-09T08:24:08.079Z,19.40
2022-12-09T08:26:37.590Z,17.00
2022-12-09T08:29:09.056Z,17.83
2022-12-09T08:31:40.965Z,18.13
2022-12-09T08:34:08.973Z,18.37
2022-12-09T08:36:37.108Z,17.63
2022-12-09T08:39:06.109Z,16.73
2022-12-09T08:41:38.432Z,16.93
2022-12-09T08:44:11.186Z,18.03
2022-12-09T08:46:42.532Z,17.50
2022-12-09T08:49:10.987Z,16.77
2022-12-09T08:51:38.298Z,17.83
2022-12-09T08:54:06.011Z,17.37
2022-12-09T08:56:36.180Z,17.17
2022-12-09T08:59:06.824Z,16.33
2022-12-09T09:01:36.749Z,17.93
2022-12-09T09:04:10.103Z,17.10
2022-12-09T09:06:39.464Z,19.10
2022-12-09T09:09:08.349Z,16.90
2022-12-09T09:11:36.509Z,17.50
2022-12-09T09:14:08.641Z,17.60
2022-12-09T09:16:37.433Z,17.97
2022-12-09T09:19:06.097Z,17.67
2022-12-09T09:21:37.025Z,17.40
2022-12-09T09:24:16.739Z,16.60
2022-12-09T09:26:44.287Z,18.03
2022-12-09T09:29:12.671Z,16.20
2022-12-09T09:31:39.944Z,17.23
2022-12-09T09:34:07.384Z,17.63
2022-12-09T09:36:37.610Z,15.40
2022-12-09T09:39:07.127Z,17.83
2022-12-09T09:41:53.809Z,17.80
2022-12-09T09:44:28.041Z,15.50
2022-12-09T09:46:56.922Z,15.73
2022-12-09T09:50:20.424Z,15.10
2022-12-09T09:52:47.399Z,15.63
2022-12-09T09:55:18.463Z,16.77
2022-12-09T09:57:59.538Z,16.33
2022-12-09T10:00:38.816Z,16.80
2022-12-09T10:03:17.643Z,16.33
2022-12-09T10:05:58.490Z,16.07
2022-12-09T10:08:40.716Z,14.83
2022-12-09T10:11:23.418Z,15.90
2022-12-09T10:14:12.952Z,16.57
2022-12-09T10:17:08.617Z,15.77
2022-12-09T10:19:39.238Z,16.10
2022-12-09T10:22:14.748Z,14.53
2022-12-09T10:24:57.975Z,14.57
2022-12-09T10:27:30.457Z,14.93
2022-12-09T10:30:11.517Z,15.50
2022-12-09T10:32:39.436Z,15.00
2022-12-09T10:35:18.040Z,15.50
2022-12-09T10:37:46.624Z,16.33
2022-12-09T10:40:23.912Z,16.07
2022-12-09T10:43:14.535Z,16.10
2022-12-09T10:46:16.940Z,15.70
2022-12-09T10:48:48.876Z,16.27
2022-12-09T10:51:30.195Z,14.13
2022-12-09T10:54:04.179Z,15.57
2022-12-09T10:57:04.373Z,15.00
2022-12-09T10:59:35.361Z,13.97
2022-12-09T11:02:08.287Z,15.33
2022-12-09T11:04:43.928Z,15.00
2022-12-09T11:07:11.098Z,14.13
2022-12-09T11:10:05.491Z,13.97
2022-12-09T11:12:41.310Z,13.73
2022-12-09T11:15:43.604Z,13.13
2022-12-09T11:18:28.879Z,13.50
2022-12-09T11:21:20.472Z,12.20
2022-12-09T11:24:02.261Z,14.57
2022-12-09T11:26:36.003Z,13.57
2022-12-09T11:29:19.462Z,13.77
2022-12-09T11:31:48.432Z,14.97
2022-12-09T11:34:26.330Z,12.67
2022-12-09T11:36:56.689Z,11.87
2022-12-09T11:39:27.290Z,13.23
2022-12-09T11:42:22.941Z,12.10
2022-12-09T11:44:56.850Z,12.87
2022-12-09T11:50:42.326Z,13.27
2022-12-09T11:53:12.069Z,12.17
2022-12-09T11:55:48.258Z,12.90
2022-12-09T11:58:24.426Z,12.40
2022-12-09T12:01:29.591Z,11.97
2022-12-09T12:04:03.795Z,11.67
2022-12-09T12:06:58.946Z,11.77
2022-12-09T12:09:58.769Z,10.87
2022-12-09T12:12:36.457Z,10.03
2022-12-09T12:15:17.555Z,11.23
2022-12-09T12:17:50.491Z,10.13
2022-12-09T12:20:17.323Z,10.80
2022-12-09T12:23:23.715Z,10.10
2022-12-09T12:25:54.774Z,10.93
2022-12-09T12:28:56.661Z,10.20
2022-12-09T12:31:49.937Z,11.17
2022-12-09T12:34:25.696Z,10.37
2022-12-09T12:37:31.037Z,10.80
2022-12-09T12:40:27.138Z,10.77
2022-12-09T12:43:34.097Z,10.60
2022-12-09T12:46:26.864Z,10.43
2022-12-09T12:49:08.613Z,10.83
2022-12-09T12:51:51.148Z,9.20
2022-12-09T12:54:51.185Z,11.03
2022-12-09T12:57:36.310Z,11.50
2022-12-09T13:00:09.707Z,9.47
2022-12-09T13:02:36.588Z,9.87
2022-12-09T13:05:21.216Z,10.03
2022-12-09T13:08:06.162Z,9.80
2022-12-09T13:10:41.929Z,10.87
2022-12-09T13:13:20.111Z,9.63
2022-12-09T13:15:51.677Z,10.03
2022-12-09T13:18:50.790Z,10.70
2022-12-09T13:21:18.603Z,10.67
2022-12-09T13:23:48.100Z,10.47
2022-12-09T13:26:40.887Z,10.17
2022-12-09T13:29:30.147Z,10.20
2022-12-09T13:32:21.774Z,9.60
2022-12-09T13:34:54.503Z,10.97
2022-12-09T13:37:39.344Z,11.03
2022-12-09T13:40:36.854Z,10.97
2022-12-09T13:43:03.442Z,11.33
2022-12-09T13:45:34.398Z,11.30
2022-12-09T13:48:16.957Z,11.53
2022-12-09T13:51:00.010Z,10.73
2022-12-09T13:53:45.847Z,12.00
2022-12-09T13:56:26.994Z,11.53
2022-12-09T13:59:24.722Z,11.40
2022-12-09T14:01:53.704Z,11.33
2022-12-09T14:04:28.184Z,10.43
2022-12-09T14:06:57.732Z,10.77
2022-12-09T14:09:36.730Z,10.70
2022-12-09T14:12:12.541Z,11.60
2022-12-09T14:15:02.087Z,10.03
2022-12-09T14:17:31.408Z,9.43
2022-12-09T14:20:22.857Z,9.83
2022-12-09T14:23:12.785Z,8.73
2022-12-09T14:25:57.442Z,9.97
2022-12-09T14:28:37.915Z,10.30
2022-12-09T14:31:08.640Z,9.33
2022-12-09T14:33:46.521Z,9.73
2022-12-09T14:36:12.996Z,9.17
2022-12-09T14:39:23.006Z,8.83
2022-12-09T14:41:54.024Z,7.60
2022-12-09T14:44:33.010Z,8.43
2022-12-09T14:47:29.900Z,9.23
2022-12-09T14:50:07.964Z,8.17
2022-12-09T14:52:34.682Z,8.50
2022-12-09T14:55:08.158Z,8.83
2022-12-09T14:57:46.015Z,9.70
2022-12-09T15:00:30.276Z,8.53
2022-12-09T15:03:30.723Z,9.03
2022-12-09T15:06:09.202Z,9.43
2022-12-09T15:08:41.160Z,9.00
2022-12-09T15:11:18.269Z,9.13
2022-12-09T15:13:48.461Z,9.17
2022-12-09T15:16:25.209Z,9.33
2022-12-09T15:18:53.402Z,10.33
2022-12-09T15:21:28.505Z,13.60
2022-12-09T15:23:55.696Z,11.37
2022-12-09T15:26:32.395Z,11.17
2022-12-09T15:29:01.004Z,9.63
2022-12-09T15:31:30.062Z,9.13
2022-12-09T15:33:59.368Z,10.10
2022-12-09T15:36:45.590Z,9.97
2022-12-09T15:39:27.771Z,10.00
2022-12-09T15:42:11.398Z,10.17
2022-12-09T15:44:46.779Z,9.20
2022-12-09T15:47:23.447Z,11.57
2022-12-09T15:50:00.911Z,15.77
2022-12-09T15:52:33.820Z,13.23
2022-12-09T15:55:10.020Z,11.93
2022-12-09T15:57:41.104Z,10.43
2022-12-09T16:00:11.268Z,11.87
2022-12-09T16:02:41.218Z,9.73
2022-12-09T16:05:10.400Z,9.50
2022-12-09T16:07:59.748Z,8.00
2022-12-09T16:10:27.674Z,7.63
2022-12-09T16:13:11.981Z,9.13
2022-12-09T16:15:47.689Z,8.13
2022-12-09T16:18:18.790Z,8.33
2022-12-09T16:20:57.576Z,8.97
2022-12-09T16:23:25.881Z,9.97
2022-12-09T16:26:04.907Z,7.73
2022-12-09T16:28:34.798Z,9.57
2022-12-09T16:31:16.404Z,8.40
2022-12-09T16:33:48.128Z,7.57
2022-12-09T16:36:20.089Z,7.10
2022-12-09T16:39:23.873Z,7.23
2022-12-09T16:41:53.489Z,7.90
2022-12-09T16:44:29.769Z,7.70
2022-12-09T16:47:19.469Z,7.50
2022-12-09T16:49:48.035Z,7.17
2022-12-09T16:52:19.691Z,7.50
2022-12-09T16:54:48.284Z,7.40
2022-12-09T16:57:17.714Z,7.00
2022-12-09T16:59:45.383Z,6.67
2022-12-09T17:02:25.139Z,6.87
2022-12-09T17:04:52.377Z,9.17
2022-12-09T17:07:19.111Z,8.17
2022-12-09T17:09:46.094Z,8.43
2022-12-09T17:12:12.677Z,7.40
2022-12-09T17:14:39.221Z,7.30
2022-12-09T17:17:08.358Z,7.47
2022-12-09T17:19:34.979Z,7.90
2022-12-09T17:22:03.731Z,9.10
2022-12-09T17:24:30.295Z,8.97
2022-12-09T17:26:56.806Z,7.63
2022-12-09T17:29:23.333Z,7.77
2022-12-09T17:31:52.426Z,10.70
2022-12-09T17:34:19.562Z,18.27
2022-12-09T17:36:46.213Z,11.00
2022-12-09T17:39:12.957Z,12.27
2022-12-09T17:41:39.684Z,9.60
2022-12-09T17:44:08.968Z,9.60
2022-12-09T17:46:38.403Z,10.60
2022-12-09T17:49:04.947Z,12.10
2022-12-09T17:51:35.951Z,9.60
2022-12-09T17:54:03.547Z,9.77
2022-12-09T17:56:30.085Z,10.83
2022-12-09T17:58:59.923Z,11.87
2022-12-09T18:01:26.874Z,8.63
2022-12-09T18:04:01.617Z,9.50
2022-12-09T18:06:34.726Z,8.80
2022-12-09T18:09:03.025Z,9.00
2022-12-09T18:11:29.687Z,10.83
2022-12-09T18:13:57.564Z,10.00
2022-12-09T18:16:24.275Z,7.70
2022-12-09T18:18:50.881Z,7.67
2022-12-09T18:21:19.738Z,8.27
2022-12-09T18:23:48.220Z,8.77
2022-12-09T18:26:18.441Z,8.47
2022-12-09T18:28:45.514Z,9.00
2022-12-09T18:31:19.061Z,8.47
2022-12-09T18:33:45.916Z,8.83
2022-12-09T18:36:14.873Z,10.10
2022-12-09T18:38:48.365Z,8.60
2022-12-09T18:41:23.754Z,9.30
2022-12-09T18:43:52.344Z,9.00
2022-12-09T18:46:25.483Z,9.87
2022-12-09T18:48:58.197Z,9.40
2022-12-09T18:51:25.998Z,9.60
2022-12-09T18:53:52.851Z,9.07
2022-12-09T18:56:21.591Z,9.57
2022-12-09T19:01:39.733Z,9.30
2022-12-09T19:04:22.781Z,8.70
2022-12-09T19:06:54.881Z,9.77
2022-12-09T19:09:28.500Z,9.37
2022-12-09T19:11:55.010Z,9.00
2022-12-09T19:14:23.107Z,9.47
2022-12-09T19:16:50.689Z,8.90
2022-12-09T19:19:20.270Z,8.03
2022-12-09T19:21:47.132Z,9.17
2022-12-09T19:24:28.479Z,8.60
2022-12-09T19:26:57.815Z,10.13
2022-12-09T19:29:25.053Z,9.87
2022-12-09T19:31:52.955Z,9.03
2022-12-09T19:34:27.377Z,10.10
2022-12-09T19:37:03.294Z,8.13
2022-12-09T19:39:31.465Z,9.90
2022-12-09T19:41:59.075Z,9.03
2022-12-09T19:44:52.654Z,10.70
2022-12-09T19:47:13.167Z,10.33
2022-12-09T19:49:44.347Z,10.20
2022-12-09T19:52:12.046Z,10.67
2022-12-09T19:54:41.679Z,10.83
2022-12-09T19:57:11.525Z,10.93
2022-12-09T19:59:41.753Z,10.17
2022-12-09T20:02:12.573Z,10.50
2022-12-09T20:04:50.770Z,9.93
2022-12-09T20:07:18.723Z,10.93
2022-12-09T20:09:45.243Z,10.20
2022-12-09T20:12:11.989Z,10.83
2022-12-09T20:14:42.040Z,9.87
2022-12-09T20:17:11.718Z,12.13
2022-12-09T20:19:41.659Z,9.33
2022-12-09T20:22:09.709Z,10.40
2022-12-09T20:24:42.111Z,10.20
2022-12-09T20:27:11.960Z,9.70
2022-12-09T20:29:41.278Z,10.47
2022-12-09T20:32:10.772Z,10.80
2022-12-09T20:34:39.242Z,9.13
2022-12-09T20:37:06.086Z,10.57
2022-12-09T20:39:32.784Z,9.20
2022-12-09T20:41:59.894Z,10.33
2022-12-09T20:44:26.722Z,10.13
2022-12-09T20:46:53.521Z,10.57
2022-12-09T20:49:26.063Z,10.40
2022-12-09T20:51:53.115Z,10.40
2022-12-09T20:54:19.668Z,10.30
2022-12-09T20:56:46.283Z,9.93
2022-12-09T20:59:13.712Z,9.63
2022-12-09T21:01:41.196Z,9.63
2022-12-09T21:04:13.986Z,9.57
2022-12-09T21:06:41.383Z,11.63
2022-12-09T21:09:14.823Z,11.13
2022-12-09T21:11:41.513Z,9.63
2022-12-09T21:14:11.952Z,10.80
2022-12-09T21:16:42.503Z,9.80
2022-12-09T21:19:14.681Z,10.30
2022-12-09T21:21:43.420Z,10.97
2022-12-09T21:24:14.123Z,10.17
2022-12-09T21:26:41.554Z,10.07
2022-12-09T21:29:12.509Z,9.10
2022-12-09T21:31:42.615Z,13.93
2022-12-09T21:34:14.731Z,11.13
2022-12-09T21:36:43.307Z,10.93
2022-12-09T21:39:13.833Z,9.77
2022-12-09T21:41:43.975Z,10.00
2022-12-09T21:44:17.452Z,9.13
2022-12-09T21:46:44.330Z,9.43
2022-12-09T21:49:13.948Z,10.40
2022-12-09T21:51:43.698Z,10.37
2022-12-09T21:54:13.765Z,10.80
2022-12-09T21:56:43.600Z,10.83
2022-12-09T21:59:15.185Z,9.13
2022-12-09T22:01:43.001Z,9.33
2022-12-09T22:04:16.380Z,9.80
2022-12-09T22:06:48.159Z,9.80
2022-12-09T22:09:16.985Z,9.53
2022-12-09T22:11:44.328Z,8.77
2022-12-09T22:14:15.045Z,8.77
2022-12-09T22:16:53.351Z,9.10
2022-12-09T22:19:21.022Z,8.37
2022-12-09T22:21:48.787Z,8.57
2022-12-09T22:24:16.193Z,8.30
2022-12-09T22:26:46.429Z,9.03
2022-12-09T22:29:17.786Z,8.83
2022-12-09T22:31:45.746Z,8.43
2022-12-09T22:34:17.436Z,8.77
2022-12-09T22:36:48.938Z,7.53
2022-12-09T22:39:18.345Z,10.20
2022-12-09T22:41:48.387Z,9.73
2022-12-09T22:44:17.726Z,9.03
2022-12-09T22:46:47.944Z,9.80
2022-12-09T22:49:17.989Z,8.40
2022-12-09T22:51:46.178Z,10.10
2022-12-09T22:54:17.468Z,9.67
2022-12-09T22:56:47.315Z,10.63
2022-12-09T22:59:18.019Z,9.40
2022-12-09T23:01:50.864Z,9.53
2022-12-09T23:04:21.830Z,8.87
2022-12-09T23:06:50.032Z,7.53
2022-12-09T23:09:20.197Z,9.43
2022-12-09T23:11:46.844Z,8.97
2022-12-09T23:14:16.547Z,8.73
2022-12-09T23:16:45.654Z,7.80
2022-12-09T23:19:13.243Z,9.33
2022-12-09T23:21:43.053Z,8.40
2022-12-09T23:24:24.776Z,8.27
2022-12-09T23:26:51.605Z,8.53
2022-12-09T23:29:18.098Z,9.53
2022-12-09T23:31:46.724Z,9.47
2022-12-09T23:34:16.871Z,8.40
2022-12-09T23:36:50.255Z,10.80
2022-12-09T23:39:19.889Z,9.37
2022-12-09T23:41:49.189Z,9.80
2022-12-09T23:44:18.521Z,9.83
2022-12-09T23:46:47.707Z,8.73
2022-12-09T23:49:17.402Z,8.27
2022-12-09T23:51:44.187Z,8.93
2022-12-09T23:54:17.641Z,9.10
2022-12-09T23:56:52.454Z,8.93
2022-12-09T23:59:21.433Z,8.70
